Solana Beach, California
Current Conditions -  °F | °C
As of 11:55 PM on Sunday 25 Jan 2015 (Local Time) from KNKX Reporting Station
Broken Clouds Broken Clouds  
Wind Chill: 17°   Ceiling: 15000
Heat Index: 17°   Visibility: 10mi
Dew Point: -2°   Wind: 7mph
Humidity: 29%   Direction: 110°ESE
Pressure: 30.02"   Gusts: NA
Location:  32.98°N, 117.27°W
Report Text: KNKX 260755Z 11006KT 10SM BKN150 17/M02 A3002 RMK AO2 SLP161 T01671017 402670100 $
Loading
Personal Weather Stations






























Interactive Weather Map New forecast layout! Learn more

10-Day Weather Forecast

Advertisements
Track Severe Weather on mobile